Time;durP1;ratioP1;P1;durP2;ratioP2;P2;SDS_P1;SDS_P2;PMS_P1;PMS_P2;Temp;Humidity;BMP_temperature;BMP_pressure;BME280_temperature;BME280_humidity;BME280_pressure;Samples;Min_cycle;Max_cycle;Signal;HPM_P1;HPM_P2
2023/06/30 00:00:27;;;;;;;;;;;;;;;24.09;40.11;100468.15;104503;1294;70019;-87
2023/06/30 00:02:52;;;;;;;;;;;;;;;24.08;40.12;100465.85;104657;1294;68811;-88
2023/06/30 00:05:18;;;;;;;;;;;;;;;24.08;40.15;100466.58;104363;1295;68110;-87
2023/06/30 00:07:44;;;;;;;;;;;;;;;24.08;40.17;100469.25;104587;1294;70256;-87
2023/06/30 00:10:09;;;;;;;;;;;;;;;24.08;39.97;100468.19;104441;1295;70009;-87
2023/06/30 00:12:35;;;;;;;;;;;;;;;24.07;40.03;100470.55;104438;1295;70384;-87
2023/06/30 00:15:00;;;;;;;;;;;;;;;24.08;39.99;100471.02;104470;1295;70024;-87
2023/06/30 00:17:26;;;;;;;;;;;;;;;24.07;40.05;100467.02;104495;1294;70081;-87
2023/06/30 00:19:51;;;;;;;;;;;;;;;24.07;39.87;100469.12;104459;1295;68238;-87
2023/06/30 00:22:20;;;;;;;;;;;;;;;24.07;40.06;100466.66;104672;1295;68124;-87
2023/06/30 00:24:47;;;;;;;;;;;;;;;24.06;40.09;100465.48;104610;1294;74373;-88
2023/06/30 00:27:12;;;;;;;;;;;;;;;24.07;40.02;100463.11;104505;1295;70134;-87
2023/06/30 00:29:38;;;;;;;;;;;;;;;24.06;40.10;100464.52;104509;1294;70005;-93
2023/06/30 00:32:04;;;;;;;;;;;;;;;24.06;40.23;100467.08;104045;1303;70063;-87
2023/06/30 00:34:29;;;;;;;;;;;;;;;24.06;40.15;100463.59;104534;1295;70134;-87
2023/06/30 00:36:55;;;;;;;;;;;;;;;24.05;40.24;100468.23;104549;1298;70078;-87
2023/06/30 00:39:20;;;;;;;;;;;;;;;24.05;40.07;100468.17;104504;1297;70160;-87
2023/06/30 00:41:45;;;;;;;;;;;;;;;24.04;40.06;100463.46;104617;1294;70026;-88
2023/06/30 00:44:11;;;;;;;;;;;;;;;24.04;40.19;100462.84;104413;1295;67742;-87
2023/06/30 00:46:36;;;;;;;;;;;;;;;24.04;40.20;100463.86;104545;1294;68064;-87
2023/06/30 00:49:02;;;;;;;;;;;;;;;24.04;40.08;100458.58;104380;1295;70054;-87
2023/06/30 00:51:28;;;;;;;;;;;;;;;24.04;40.13;100457.30;104687;1295;70027;-87
2023/06/30 00:53:53;;;;;;;;;;;;;;;24.03;40.00;100458.22;104535;1295;69988;-87
2023/06/30 00:58:59;;;;;;;;;;;;;;;24.03;40.17;100449.55;104375;1296;68094;-87
2023/06/30 01:01:31;;;;;;;;;;;;;;;24.02;40.06;100449.65;104517;1297;68078;-87
2023/06/30 01:04:01;;;;;;;;;;;;;;;24.02;40.07;100446.21;104334;1297;69930;-88
2023/06/30 01:06:39;;;;;;;;;;;;;;;24.02;40.08;100445.90;104444;1297;68225;-87
2023/06/30 01:09:06;;;;;;;;;;;;;;;24.01;40.08;100446.42;104272;1297;74514;-87
2023/06/30 01:11:31;;;;;;;;;;;;;;;24.01;40.03;100450.48;104268;1299;69995;-88
2023/06/30 01:13:57;;;;;;;;;;;;;;;24.01;40.02;100450.90;104245;1297;70090;-87
2023/06/30 01:16:22;;;;;;;;;;;;;;;24.01;40.14;100450.89;104337;1297;67817;-87
2023/06/30 01:18:52;;;;;;;;;;;;;;;24.01;40.06;100449.05;104339;1300;70024;-88
2023/06/30 01:21:18;;;;;;;;;;;;;;;24.00;40.10;100451.84;104355;1297;75371;-87
2023/06/30 01:23:58;;;;;;;;;;;;;;;24.00;40.25;100455.58;104298;1297;68154;-87
2023/06/30 01:26:34;;;;;;;;;;;;;;;24.00;40.16;100451.94;104081;1300;69997;-91
2023/06/30 01:29:00;;;;;;;;;;;;;;;23.99;40.13;100444.95;104269;1297;70411;-87
2023/06/30 01:31:31;;;;;;;;;;;;;;;23.99;40.30;100445.38;104402;1297;70021;-87
2023/06/30 01:34:00;;;;;;;;;;;;;;;23.99;40.02;100444.77;104443;1297;75366;-87
2023/06/30 01:36:25;;;;;;;;;;;;;;;23.99;40.08;100445.84;104321;1297;71898;-87
2023/06/30 01:38:51;;;;;;;;;;;;;;;23.98;40.15;100445.74;104231;1297;68852;-87
2023/06/30 01:41:28;;;;;;;;;;;;;;;23.98;40.11;100446.88;104232;1297;67955;-93
2023/06/30 01:43:54;;;;;;;;;;;;;;;23.98;40.10;100445.27;104257;1300;69910;-87
2023/06/30 01:46:19;;;;;;;;;;;;;;;23.97;40.13;100444.56;104247;1297;70081;-87
2023/06/30 01:48:45;;;;;;;;;;;;;;;23.97;40.13;100442.23;104308;1297;67391;-87
2023/06/30 01:51:11;;;;;;;;;;;;;;;23.96;40.07;100448.11;104205;1299;70052;-87
2023/06/30 01:53:36;;;;;;;;;;;;;;;23.96;40.08;100446.96;104165;1297;68861;-88
2023/06/30 01:56:02;;;;;;;;;;;;;;;23.96;40.39;100447.34;104314;1299;70027;-87
2023/06/30 01:58:27;;;;;;;;;;;;;;;23.96;40.18;100446.77;104194;1300;69985;-87
2023/06/30 02:00:53;;;;;;;;;;;;;;;23.95;40.29;100444.27;104209;1303;68230;-87
2023/06/30 02:03:18;;;;;;;;;;;;;;;23.95;40.30;100449.10;104279;1297;70045;-88
2023/06/30 02:05:44;;;;;;;;;;;;;;;23.95;40.08;100447.62;104357;1300;70038;-87
2023/06/30 02:08:18;;;;;;;;;;;;;;;23.94;40.36;100446.13;104143;1299;68399;-92
2023/06/30 02:10:44;;;;;;;;;;;;;;;23.94;40.19;100445.11;104123;1301;69768;-87
2023/06/30 02:13:09;;;;;;;;;;;;;;;23.93;40.27;100442.33;104193;1300;70093;-87
2023/06/30 02:15:35;;;;;;;;;;;;;;;23.93;40.35;100441.93;104235;1299;68180;-87
2023/06/30 02:18:00;;;;;;;;;;;;;;;23.93;40.36;100443.31;104126;1301;68733;-87
2023/06/30 02:20:26;;;;;;;;;;;;;;;23.92;40.19;100443.63;104313;1299;69959;-87
2023/06/30 02:22:51;;;;;;;;;;;;;;;23.92;40.28;100443.52;104073;1303;70214;-87
2023/06/30 02:25:17;;;;;;;;;;;;;;;23.93;40.42;100447.22;104282;1298;70041;-88
2023/06/30 02:27:45;;;;;;;;;;;;;;;23.92;40.40;100447.84;104358;1299;68138;-88
2023/06/30 02:30:10;;;;;;;;;;;;;;;23.92;40.31;100445.28;105385;1299;67574;-88
2023/06/30 02:32:37;;;;;;;;;;;;;;;23.90;40.33;100443.35;105630;1298;67579;-87
2023/06/30 02:35:14;;;;;;;;;;;;;;;23.91;40.42;100448.33;105377;1298;67824;-91
2023/06/30 02:37:39;;;;;;;;;;;;;;;23.91;40.49;100449.88;104177;1299;69153;-87
2023/06/30 02:40:05;;;;;;;;;;;;;;;23.91;40.31;100447.60;104259;1299;70075;-88
2023/06/30 02:42:31;;;;;;;;;;;;;;;23.91;40.47;100452.23;104239;1299;70088;-87
2023/06/30 02:44:56;;;;;;;;;;;;;;;23.90;40.38;100453.88;104166;1300;69929;-87
2023/06/30 02:47:22;;;;;;;;;;;;;;;23.90;40.55;100459.27;104314;1299;67575;-88
2023/06/30 02:49:47;;;;;;;;;;;;;;;23.89;40.41;100460.42;104162;1299;75543;-88
2023/06/30 02:52:13;;;;;;;;;;;;;;;23.88;40.43;100460.78;104179;1300;70158;-88
2023/06/30 02:54:38;;;;;;;;;;;;;;;23.89;40.35;100457.29;104155;1299;70147;-87
2023/06/30 02:57:04;;;;;;;;;;;;;;;23.89;40.73;100457.70;104288;1299;68450;-88
2023/06/30 02:59:29;;;;;;;;;;;;;;;23.88;40.45;100460.33;104270;1305;70141;-88
2023/06/30 03:04:30;;;;;;;;;;;;;;;23.87;40.49;100465.63;104544;1295;69951;-87
2023/06/30 03:06:56;;;;;;;;;;;;;;;23.87;40.44;100467.02;104496;1294;70018;-87
2023/06/30 03:09:21;;;;;;;;;;;;;;;23.87;40.47;100469.39;104450;1294;67771;-87
2023/06/30 03:11:47;;;;;;;;;;;;;;;23.86;40.50;100468.51;104532;1295;68284;-88
2023/06/30 03:14:12;;;;;;;;;;;;;;;23.87;40.54;100467.23;104843;1296;70034;-88
2023/06/30 03:16:38;;;;;;;;;;;;;;;23.86;40.55;100468.98;104434;1298;70034;-87
2023/06/30 03:19:03;;;;;;;;;;;;;;;23.86;40.51;100470.38;104876;1296;67653;-87
2023/06/30 03:21:30;;;;;;;;;;;;;;;23.86;40.53;100473.55;105123;1296;68037;-88
2023/06/30 03:23:56;;;;;;;;;;;;;;;23.86;40.51;100473.03;104956;1296;67870;-88
2023/06/30 03:26:23;;;;;;;;;;;;;;;23.87;40.66;100471.99;104663;1296;68456;-89
2023/06/30 03:31:19;;;;;;;;;;;;;;;23.88;40.73;100470.05;104721;1294;67676;-88
2023/06/30 03:33:44;;;;;;;;;;;;;;;23.87;40.75;100475.39;104608;1298;70018;-88
2023/06/30 03:36:10;;;;;;;;;;;;;;;23.87;40.81;100468.55;104432;1298;68894;-88
2023/06/30 03:38:36;;;;;;;;;;;;;;;23.87;40.94;100467.80;104551;1295;70069;-88
2023/06/30 03:41:06;;;;;;;;;;;;;;;23.85;40.96;100471.88;104855;1290;68742;-86
2023/06/30 03:43:33;;;;;;;;;;;;;;;23.83;40.83;100470.07;104377;1297;74293;-87
2023/06/30 03:45:58;;;;;;;;;;;;;;;23.81;40.67;100470.14;104355;1299;70049;-89
2023/06/30 03:48:24;;;;;;;;;;;;;;;23.81;40.85;100470.28;104414;1300;70183;-88
2023/06/30 03:50:55;;;;;;;;;;;;;;;23.80;40.88;100464.69;104192;1297;70173;-88
2023/06/30 03:53:21;;;;;;;;;;;;;;;23.79;40.86;100464.60;104203;1297;70014;-88
2023/06/30 03:55:47;;;;;;;;;;;;;;;23.78;40.83;100465.73;104229;1297;69982;-89
2023/06/30 03:58:13;;;;;;;;;;;;;;;23.77;40.79;100468.69;104234;1297;70085;-88
2023/06/30 04:00:38;;;;;;;;;;;;;;;23.75;40.90;100469.89;104416;1297;70147;-88
2023/06/30 04:03:04;;;;;;;;;;;;;;;23.73;40.87;100469.65;104212;1297;70216;-88
2023/06/30 04:05:29;;;;;;;;;;;;;;;23.70;40.92;100467.63;104334;1297;69981;-88
2023/06/30 04:07:55;;;;;;;;;;;;;;;23.68;40.95;100466.98;104288;1297;70181;-88
2023/06/30 04:10:21;;;;;;;;;;;;;;;23.66;41.00;100463.41;104414;1297;67644;-88
2023/06/30 04:12:47;;;;;;;;;;;;;;;23.65;40.98;100462.76;104483;1297;69960;-88
2023/06/30 04:15:12;;;;;;;;;;;;;;;23.62;41.05;100458.52;104371;1297;69099;-88
2023/06/30 04:17:38;;;;;;;;;;;;;;;23.60;40.90;100459.56;104341;1297;70083;-88
2023/06/30 04:20:07;;;;;;;;;;;;;;;23.59;40.90;100456.50;104170;1297;69809;-89
2023/06/30 04:22:32;;;;;;;;;;;;;;;23.58;40.89;100456.63;104290;1297;68103;-89
2023/06/30 04:24:59;;;;;;;;;;;;;;;23.55;40.97;100456.20;104498;1298;68382;-88
2023/06/30 04:27:24;;;;;;;;;;;;;;;23.52;40.94;100454.89;104541;1297;70021;-88
2023/06/30 04:29:50;;;;;;;;;;;;;;;23.49;40.88;100459.34;105166;1297;68232;-88
2023/06/30 04:32:15;;;;;;;;;;;;;;;23.47;40.92;100459.63;105145;1297;68168;-88
2023/06/30 04:34:41;;;;;;;;;;;;;;;23.47;40.82;100464.80;105128;1297;67575;-92
2023/06/30 04:37:08;;;;;;;;;;;;;;;23.43;40.79;100465.45;105001;1301;74204;-88
2023/06/30 04:39:34;;;;;;;;;;;;;;;23.41;40.78;100467.53;105387;1297;68024;-88
2023/06/30 04:42:00;;;;;;;;;;;;;;;23.38;40.82;100465.41;105231;1299;70144;-88
2023/06/30 04:44:25;;;;;;;;;;;;;;;23.36;40.91;100464.50;104580;1303;68004;-88
2023/06/30 04:46:51;;;;;;;;;;;;;;;23.36;40.86;100468.80;104549;1297;70074;-88
2023/06/30 04:49:16;;;;;;;;;;;;;;;23.36;40.93;100473.73;104293;1300;70096;-88
2023/06/30 04:51:42;;;;;;;;;;;;;;;23.34;40.75;100476.09;104439;1297;69914;-88
2023/06/30 04:54:07;;;;;;;;;;;;;;;23.32;40.78;100475.58;104459;1303;68018;-88
2023/06/30 04:56:33;;;;;;;;;;;;;;;23.30;40.88;100475.60;104428;1300;68235;-88
2023/06/30 04:58:58;;;;;;;;;;;;;;;23.28;40.81;100480.19;104372;1297;70100;-88
2023/06/30 05:01:24;;;;;;;;;;;;;;;23.24;40.84;100486.89;104291;1297;69978;-87
2023/06/30 05:03:49;;;;;;;;;;;;;;;23.21;40.86;100491.58;104465;1297;70088;-88
2023/06/30 05:06:15;;;;;;;;;;;;;;;23.19;40.82;100494.10;104472;1297;68537;-88
2023/06/30 05:08:40;;;;;;;;;;;;;;;23.17;40.80;100495.67;104428;1297;70032;-88
2023/06/30 05:11:06;;;;;;;;;;;;;;;23.14;40.90;100496.19;104411;1297;67759;-88
2023/06/30 05:16:15;;;;;;;;;;;;;;;23.08;40.92;100495.63;104622;1299;69011;-88
2023/06/30 05:18:40;;;;;;;;;;;;;;;23.07;40.93;100493.69;104623;1299;70099;-89
2023/06/30 05:21:09;;;;;;;;;;;;;;;23.07;41.00;100501.23;104622;1300;68616;-88
2023/06/30 05:23:35;;;;;;;;;;;;;;;23.08;41.05;100501.34;104677;1294;68790;-88
2023/06/30 05:26:00;;;;;;;;;;;;;;;23.07;41.05;100498.56;104715;1297;70037;-88
2023/06/30 05:31:03;;;;;;;;;;;;;;;23.03;41.04;100506.95;104439;1299;75274;-88
2023/06/30 05:33:29;;;;;;;;;;;;;;;23.03;41.03;100511.53;104659;1294;70033;-88
2023/06/30 05:35:54;;;;;;;;;;;;;;;23.02;41.17;100508.20;104355;1297;69984;-88
2023/06/30 05:38:20;;;;;;;;;;;;;;;23.01;41.02;100508.67;104421;1297;68034;-88
2023/06/30 05:40:46;;;;;;;;;;;;;;;22.99;40.98;100514.64;104365;1298;68058;-88
2023/06/30 05:43:12;;;;;;;;;;;;;;;22.98;41.08;100510.71;104702;1297;70058;-88
2023/06/30 05:45:39;;;;;;;;;;;;;;;22.97;41.08;100512.19;104464;1299;69829;-88
2023/06/30 05:48:04;;;;;;;;;;;;;;;22.97;41.12;100511.07;104476;1297;67470;-89
2023/06/30 05:50:30;;;;;;;;;;;;;;;22.98;41.10;100508.90;104499;1302;67697;-89
2023/06/30 05:52:55;;;;;;;;;;;;;;;22.99;41.16;100511.52;104516;1297;70054;-88
2023/06/30 05:55:31;;;;;;;;;;;;;;;23.00;41.21;100507.66;104513;1290;70147;31
2023/06/30 05:57:57;;;;;;;;;;;;;;;23.01;41.14;100504.30;104477;1296;70073;-88
2023/06/30 06:00:24;;;;;;;;;;;;;;;23.01;41.17;100503.48;104643;1296;70034;-88
2023/06/30 06:02:50;;;;;;;;;;;;;;;23.03;41.23;100505.46;104737;1297;67550;-89
2023/06/30 06:05:16;;;;;;;;;;;;;;;23.04;41.19;100500.95;104824;1295;70010;-88
2023/06/30 06:07:41;;;;;;;;;;;;;;;23.06;41.23;100505.85;104796;1291;68174;-88
2023/06/30 06:10:07;;;;;;;;;;;;;;;23.05;41.24;100503.77;104498;1295;69922;-88
2023/06/30 06:12:33;;;;;;;;;;;;;;;23.03;41.18;100498.91;104601;1297;67995;-89
2023/06/30 06:14:59;;;;;;;;;;;;;;;23.03;41.19;100500.29;104652;1297;68497;-88
2023/06/30 06:17:24;;;;;;;;;;;;;;;23.05;41.04;100502.45;104501;1297;70060;-88
2023/06/30 06:19:51;;;;;;;;;;;;;;;23.05;41.09;100503.24;104641;1296;68307;-88
2023/06/30 06:22:23;;;;;;;;;;;;;;;23.06;41.07;100503.95;104782;1297;70157;-91
2023/06/30 06:24:48;;;;;;;;;;;;;;;23.09;41.07;100504.25;104534;1297;69819;-88
2023/06/30 06:27:14;;;;;;;;;;;;;;;23.12;41.02;100499.65;104670;1296;70032;-89
2023/06/30 06:29:42;;;;;;;;;;;;;;;23.12;40.88;100504.52;104707;1296;67803;-88
2023/06/30 06:32:08;;;;;;;;;;;;;;;23.11;40.89;100500.42;104766;1296;68889;-88
2023/06/30 06:34:34;;;;;;;;;;;;;;;23.13;40.93;100500.77;104778;1292;70148;-88
2023/06/30 06:37:00;;;;;;;;;;;;;;;23.16;40.89;100495.41;104500;1298;68158;-88
2023/06/30 06:39:26;;;;;;;;;;;;;;;23.17;40.84;100497.86;104827;1296;67676;-88
2023/06/30 06:41:52;;;;;;;;;;;;;;;23.19;40.75;100500.98;104732;1296;70217;-89
2023/06/30 06:44:17;;;;;;;;;;;;;;;23.19;40.74;100503.70;104527;1301;68118;-87
2023/06/30 06:46:43;;;;;;;;;;;;;;;23.19;40.68;100500.52;104450;1297;68716;-88
2023/06/30 06:49:21;;;;;;;;;;;;;;;23.21;40.62;100497.23;104337;1297;68443;-92
2023/06/30 06:51:47;;;;;;;;;;;;;;;23.23;40.55;100497.23;104420;1302;69936;-87
2023/06/30 06:54:12;;;;;;;;;;;;;;;23.26;40.52;100501.52;104371;1299;70093;-87
2023/06/30 06:56:38;;;;;;;;;;;;;;;23.29;40.53;100500.35;104418;1297;70288;-88
2023/06/30 06:59:03;;;;;;;;;;;;;;;23.30;40.46;100498.81;104455;1297;70219;-88
2023/06/30 07:01:30;;;;;;;;;;;;;;;23.31;40.45;100499.93;104470;1299;70082;-88
2023/06/30 07:03:55;;;;;;;;;;;;;;;23.33;40.33;100497.25;104355;1297;69849;-88
2023/06/30 07:06:22;;;;;;;;;;;;;;;23.34;40.25;100494.00;104395;1303;68185;-88
2023/06/30 07:08:48;;;;;;;;;;;;;;;23.35;40.35;100492.34;104589;1298;70170;-88
2023/06/30 07:11:14;;;;;;;;;;;;;;;23.37;40.28;100494.06;104488;1300;70087;-88
2023/06/30 07:13:40;;;;;;;;;;;;;;;23.37;40.15;100492.52;104540;1298;69962;-88
2023/06/30 07:16:17;;;;;;;;;;;;;;;23.39;40.22;100494.30;104421;1299;69933;-89
2023/06/30 07:18:45;;;;;;;;;;;;;;;23.42;40.18;100494.27;104411;1297;69957;-88
2023/06/30 07:21:11;;;;;;;;;;;;;;;23.46;40.11;100496.09;104546;1297;69966;-89
2023/06/30 07:23:37;;;;;;;;;;;;;;;23.48;40.12;100498.38;104549;1297;69858;-89
2023/06/30 07:26:03;;;;;;;;;;;;;;;23.51;40.02;100496.66;104366;1297;69955;-89
2023/06/30 07:28:31;;;;;;;;;;;;;;;23.53;39.93;100497.77;104445;1297;68779;-89
2023/06/30 07:33:37;;;;;;;;;;;;;;;23.55;39.80;100498.10;104308;1300;69965;-88
2023/06/30 07:36:03;;;;;;;;;;;;;;;23.56;39.69;100498.77;104364;1299;68089;-88
2023/06/30 07:38:28;;;;;;;;;;;;;;;23.56;39.76;100499.73;104510;1297;70084;-88
2023/06/30 07:40:54;;;;;;;;;;;;;;;23.58;39.73;100499.41;104620;1296;70059;-88
2023/06/30 07:43:20;;;;;;;;;;;;;;;23.59;39.78;100495.17;104740;1290;70035;-88
2023/06/30 07:45:48;;;;;;;;;;;;;;;23.60;39.65;100490.02;104546;1296;74369;-88
2023/06/30 07:48:14;;;;;;;;;;;;;;;23.61;39.53;100491.10;104570;1297;72436;-88
2023/06/30 07:50:43;;;;;;;;;;;;;;;23.61;39.46;100489.14;104570;1297;67675;-88
2023/06/30 07:53:09;;;;;;;;;;;;;;;23.61;39.37;100490.84;104668;1296;68282;-87
2023/06/30 07:55:34;;;;;;;;;;;;;;;23.62;39.34;100490.98;104703;1296;68030;-89
2023/06/30 07:58:02;;;;;;;;;;;;;;;23.63;39.44;100488.26;104641;1295;70094;-92
2023/06/30 08:00:29;;;;;;;;;;;;;;;23.64;39.44;100483.20;104488;1296;71749;-88
2023/06/30 08:02:54;;;;;;;;;;;;;;;23.66;39.44;100481.71;104695;1296;70029;-88
2023/06/30 08:05:19;;;;;;;;;;;;;;;23.68;39.47;100480.96;104656;1296;70047;-88
2023/06/30 08:07:46;;;;;;;;;;;;;;;23.69;39.35;100476.84;104604;1297;70323;-88
2023/06/30 08:10:12;;;;;;;;;;;;;;;23.71;39.39;100471.77;104611;1296;67656;-88
2023/06/30 08:12:38;;;;;;;;;;;;;;;23.72;39.26;100475.25;104353;1296;70159;-89
2023/06/30 08:15:04;;;;;;;;;;;;;;;23.74;39.32;100470.00;104579;1297;67809;-87
2023/06/30 08:17:29;;;;;;;;;;;;;;;23.75;39.33;100468.86;104641;1296;70041;-88
2023/06/30 08:19:54;;;;;;;;;;;;;;;23.77;39.18;100469.14;103962;1296;557989;-89
2023/06/30 08:22:21;;;;;;;;;;;;;;;23.81;39.14;100467.15;104398;1297;354073;-88
2023/06/30 08:28:01;;;;;;;;;;;;;;;23.88;39.19;100468.50;104595;1297;69832;-90
2023/06/30 08:30:27;;;;;;;;;;;;;;;23.92;39.25;100469.79;104846;1296;69958;-88
2023/06/30 08:32:54;;;;;;;;;;;;;;;23.94;39.12;100464.42;104970;1294;68680;-89
2023/06/30 08:35:19;;;;;;;;;;;;;;;23.97;38.89;100458.06;105202;1294;68116;-87
2023/06/30 08:37:45;;;;;;;;;;;;;;;24.00;38.95;100455.22;104684;1298;70031;-88
2023/06/30 08:40:11;;;;;;;;;;;;;;;24.03;38.94;100453.35;104269;1305;68069;-87
2023/06/30 08:42:37;;;;;;;;;;;;;;;24.04;38.93;100454.10;104271;1297;68911;-86
2023/06/30 08:45:03;;;;;;;;;;;;;;;24.06;39.03;100450.31;104303;1297;70055;-87
2023/06/30 08:47:31;;;;;;;;;;;;;;;24.07;39.07;100449.85;104396;1302;69991;-87
2023/06/30 08:49:57;;;;;;;;;;;;;;;24.07;38.87;100449.23;104426;1300;70088;-88
2023/06/30 08:52:22;;;;;;;;;;;;;;;24.08;38.79;100452.39;104322;1297;68728;-88
2023/06/30 08:54:49;;;;;;;;;;;;;;;24.09;38.90;100450.93;104239;1304;68090;-92
2023/06/30 08:57:15;;;;;;;;;;;;;;;24.09;38.60;100448.88;104340;1297;70194;-88
2023/06/30 08:59:43;;;;;;;;;;;;;;;24.10;38.40;100449.60;104382;1297;67729;-88
2023/06/30 09:02:09;;;;;;;;;;;;;;;24.10;38.56;100446.09;104247;1303;70155;-88
2023/06/30 09:04:35;;;;;;;;;;;;;;;24.10;38.54;100444.75;104280;1297;70046;-87
2023/06/30 09:07:00;;;;;;;;;;;;;;;24.11;38.49;100447.52;104424;1302;70155;-88
2023/06/30 09:09:27;;;;;;;;;;;;;;;24.12;38.56;100447.88;104190;1299;67418;-87
2023/06/30 09:11:53;;;;;;;;;;;;;;;24.12;38.32;100448.38;104349;1297;70086;-87
2023/06/30 09:14:18;;;;;;;;;;;;;;;24.14;38.05;100443.02;104554;1297;70085;-88
2023/06/30 09:16:44;;;;;;;;;;;;;;;24.15;38.31;100442.33;104259;1303;68138;-87
2023/06/30 09:19:09;;;;;;;;;;;;;;;24.17;37.95;100437.11;104485;1300;70476;-88
2023/06/30 09:24:06;;;;;;;;;;;;;;;24.20;37.91;100437.70;104621;1295;69819;-87
2023/06/30 09:26:32;;;;;;;;;;;;;;;24.21;38.00;100436.73;104527;1297;69960;-88
2023/06/30 09:28:58;;;;;;;;;;;;;;;24.24;37.89;100434.76;104600;1297;70103;-87
2023/06/30 09:31:27;;;;;;;;;;;;;;;24.24;37.78;100435.56;104615;1297;70083;-87
2023/06/30 09:33:53;;;;;;;;;;;;;;;24.26;37.63;100433.61;104674;1296;67736;-88
2023/06/30 09:36:18;;;;;;;;;;;;;;;24.26;37.71;100436.88;104422;1300;68175;-87
2023/06/30 09:38:44;;;;;;;;;;;;;;;24.27;37.64;100433.63;104514;1296;70063;-88
2023/06/30 09:41:18;;;;;;;;;;;;;;;24.28;37.61;100423.75;104441;1296;70435;-87
2023/06/30 09:43:43;;;;;;;;;;;;;;;24.27;37.22;100422.27;104510;1297;68964;-86
2023/06/30 09:46:09;;;;;;;;;;;;;;;24.28;37.24;100420.21;104620;1297;70419;-88
2023/06/30 09:48:39;;;;;;;;;;;;;;;24.28;37.29;100422.41;104538;1296;70178;-92
2023/06/30 09:51:07;;;;;;;;;;;;;;;24.30;37.19;100418.98;104511;1298;74532;-87
2023/06/30 09:53:39;;;;;;;;;;;;;;;24.32;37.31;100417.15;104579;1300;67940;-88
2023/06/30 09:56:04;;;;;;;;;;;;;;;24.33;37.26;100419.66;104447;1298;68054;-87
2023/06/30 09:58:30;;;;;;;;;;;;;;;24.34;37.00;100407.73;104595;1300;68918;-88
2023/06/30 10:00:56;;;;;;;;;;;;;;;24.34;37.32;100402.67;104625;1296;70181;-87
2023/06/30 10:03:41;;;;;;;;;;;;;;;24.35;37.09;100400.77;104602;1297;69957;-89
2023/06/30 10:06:07;;;;;;;;;;;;;;;24.36;37.26;100399.72;104443;1297;68640;-87
2023/06/30 10:08:32;;;;;;;;;;;;;;;24.37;37.12;100403.36;104573;1298;68296;-88
2023/06/30 10:11:01;;;;;;;;;;;;;;;24.39;37.11;100396.80;104533;1296;68953;-88
2023/06/30 10:13:26;;;;;;;;;;;;;;;24.39;37.11;100400.44;104488;1297;69925;-88
2023/06/30 10:15:52;;;;;;;;;;;;;;;24.41;37.05;100391.38;104477;1295;70142;-88
2023/06/30 10:20:57;;;;;;;;;;;;;;;24.45;37.12;100390.36;104747;1295;69982;-87
2023/06/30 10:23:22;;;;;;;;;;;;;;;24.47;36.98;100390.39;104570;1298;70224;-87
2023/06/30 10:25:48;;;;;;;;;;;;;;;24.49;36.96;100386.09;104838;1296;70142;-87
2023/06/30 10:28:13;;;;;;;;;;;;;;;24.51;36.86;100387.96;104662;1298;70012;-87
2023/06/30 10:30:39;;;;;;;;;;;;;;;24.52;36.82;100384.30;104777;1295;70076;-88
2023/06/30 10:33:04;;;;;;;;;;;;;;;24.55;36.85;100382.75;104688;1295;70055;-87
2023/06/30 10:35:30;;;;;;;;;;;;;;;24.57;36.82;100379.12;104644;1298;70003;-88
2023/06/30 10:37:55;;;;;;;;;;;;;;;24.58;36.90;100379.45;104612;1297;68314;-87
2023/06/30 10:40:25;;;;;;;;;;;;;;;24.59;36.82;100376.15;104488;1298;70037;-88
2023/06/30 10:42:51;;;;;;;;;;;;;;;24.61;36.72;100377.00;104498;1298;67767;-88
2023/06/30 10:45:34;;;;;;;;;;;;;;;24.62;36.69;100379.96;104497;1296;70319;-92
2023/06/30 10:48:09;;;;;;;;;;;;;;;24.63;36.79;100380.66;104426;1296;69989;-87
2023/06/30 10:50:41;;;;;;;;;;;;;;;24.65;36.80;100375.71;104474;1297;74352;-87
2023/06/30 10:53:07;;;;;;;;;;;;;;;24.65;36.83;100379.41;104461;1296;70011;-87
2023/06/30 10:55:32;;;;;;;;;;;;;;;24.65;36.79;100376.77;104532;1296;70149;-88
2023/06/30 10:57:58;;;;;;;;;;;;;;;24.66;36.67;100372.86;104461;1298;70083;-88
2023/06/30 11:00:31;;;;;;;;;;;;;;;24.66;36.75;100367.71;104629;1296;68951;-88
2023/06/30 11:02:57;;;;;;;;;;;;;;;24.67;36.74;100361.79;104354;1297;74332;-87
2023/06/30 11:05:26;;;;;;;;;;;;;;;24.67;36.74;100357.04;104474;1298;69971;-87
2023/06/30 11:08:01;;;;;;;;;;;;;;;24.68;36.53;100356.27;104632;1296;69860;-88
2023/06/30 11:10:32;;;;;;;;;;;;;;;24.67;36.61;100349.95;104622;1297;68145;-88
2023/06/30 11:12:58;;;;;;;;;;;;;;;24.67;36.70;100351.68;104476;1296;68042;-87
2023/06/30 11:15:28;;;;;;;;;;;;;;;24.69;36.65;100347.18;104486;1296;68846;-87
2023/06/30 11:17:57;;;;;;;;;;;;;;;24.72;36.59;100346.95;104641;1296;70032;-87
2023/06/30 11:20:26;;;;;;;;;;;;;;;24.73;36.44;100343.48;104544;1297;69908;-87
2023/06/30 11:22:55;;;;;;;;;;;;;;;24.75;36.59;100339.80;104427;1297;70232;-88
2023/06/30 11:25:23;;;;;;;;;;;;;;;24.76;36.75;100335.83;104404;1298;68103;-88
2023/06/30 11:27:49;;;;;;;;;;;;;;;24.78;36.56;100332.86;104410;1296;74475;-88
2023/06/30 11:30:18;;;;;;;;;;;;;;;24.80;36.53;100326.86;104275;1295;68793;-93
2023/06/30 11:32:44;;;;;;;;;;;;;;;24.81;36.40;100326.73;104375;1295;69927;-87
2023/06/30 11:35:10;;;;;;;;;;;;;;;24.82;36.37;100325.27;104429;1296;70070;-87
2023/06/30 11:37:36;;;;;;;;;;;;;;;24.83;36.54;100317.84;104314;1295;67930;-87
2023/06/30 11:40:02;;;;;;;;;;;;;;;24.83;36.43;100316.71;104386;1295;69978;-87
2023/06/30 11:42:28;;;;;;;;;;;;;;;24.83;36.47;100312.17;104385;1300;69922;-87
2023/06/30 11:44:54;;;;;;;;;;;;;;;24.84;36.47;100309.44;104439;1295;70014;-87
2023/06/30 11:47:19;;;;;;;;;;;;;;;24.84;36.48;100306.20;104331;1298;68875;-87
2023/06/30 11:49:45;;;;;;;;;;;;;;;24.84;36.58;100309.37;104569;1296;74317;-87
2023/06/30 11:52:11;;;;;;;;;;;;;;;24.85;36.48;100308.55;104551;1296;69874;-88
2023/06/30 11:54:36;;;;;;;;;;;;;;;24.85;36.38;100302.72;104491;1297;69971;-87
2023/06/30 11:57:12;;;;;;;;;;;;;;;24.87;36.42;100296.50;104171;1297;70114;-92
2023/06/30 11:59:38;;;;;;;;;;;;;;;24.89;36.49;100293.80;104474;1297;69880;-87
2023/06/30 12:02:03;;;;;;;;;;;;;;;24.91;36.53;100290.67;104530;1297;70062;-88
2023/06/30 12:04:33;;;;;;;;;;;;;;;24.91;36.38;100286.30;104296;1296;69987;-88
2023/06/30 12:07:02;;;;;;;;;;;;;;;24.90;36.16;100285.27;104554;1296;70015;-88
2023/06/30 12:09:34;;;;;;;;;;;;;;;24.91;36.24;100281.61;104451;1296;69843;-87
2023/06/30 12:12:16;;;;;;;;;;;;;;;24.90;36.30;100278.60;104529;1296;67590;-92
2023/06/30 12:14:41;;;;;;;;;;;;;;;24.90;36.30;100274.17;104298;1297;74389;-87
2023/06/30 12:17:07;;;;;;;;;;;;;;;24.90;36.24;100271.49;104802;1296;68833;-87
2023/06/30 12:19:32;;;;;;;;;;;;;;;24.91;36.25;100271.42;104598;1295;68131;-88
2023/06/30 12:22:06;;;;;;;;;;;;;;;24.91;36.30;100274.20;104495;1296;68054;-87
2023/06/30 12:24:32;;;;;;;;;;;;;;;24.92;36.02;100269.29;104462;1296;70213;-88
2023/06/30 12:27:09;;;;;;;;;;;;;;;24.93;36.23;100267.11;104594;1296;70050;-93
2023/06/30 12:29:38;;;;;;;;;;;;;;;24.95;36.28;100266.71;104468;1297;68872;-87
2023/06/30 12:32:11;;;;;;;;;;;;;;;24.96;36.19;100265.98;104534;1296;69988;-87
2023/06/30 12:34:36;;;;;;;;;;;;;;;24.97;36.01;100265.18;104443;1296;70024;-87
2023/06/30 12:37:02;;;;;;;;;;;;;;;24.99;36.11;100258.55;104290;1297;70085;-87
2023/06/30 12:39:28;;;;;;;;;;;;;;;25.01;36.05;100255.34;104398;1296;70067;-88
2023/06/30 12:42:02;;;;;;;;;;;;;;;25.02;35.90;100244.73;104403;1296;69892;-92
2023/06/30 12:44:28;;;;;;;;;;;;;;;25.04;35.63;100245.17;104544;1297;70014;-88
2023/06/30 12:47:05;;;;;;;;;;;;;;;25.05;35.62;100247.20;104648;1297;68208;-88